createdAt,value
2023-02-08T00:02:07.708Z,53.86
2023-02-08T00:05:10.451Z,53.92
2023-02-08T00:08:13.280Z,54.01
2023-02-08T00:11:16.161Z,54.56
2023-02-08T00:14:18.787Z,54.57
2023-02-08T00:17:22.236Z,54.62
2023-02-08T00:20:25.081Z,54.43
2023-02-08T00:23:27.857Z,54.41
2023-02-08T00:26:31.412Z,54.48
2023-02-08T00:29:34.748Z,54.54
2023-02-08T00:32:37.256Z,54.46
2023-02-08T00:35:42.515Z,54.39
2023-02-08T00:38:44.849Z,54.33
2023-02-08T00:41:48.288Z,54.25
2023-02-08T00:44:50.320Z,54.21
2023-02-08T00:47:54.433Z,54.26
2023-02-08T00:51:15.466Z,54.33
2023-02-08T00:54:20.162Z,54.37
2023-02-08T00:57:22.476Z,54.28
2023-02-08T01:00:24.935Z,54.17
2023-02-08T01:03:28.114Z,54.29
2023-02-08T01:06:30.786Z,54.42
2023-02-08T01:09:33.351Z,54.64
2023-02-08T01:12:36.574Z,54.59
2023-02-08T01:15:40.510Z,54.55
2023-02-08T01:18:46.248Z,54.50
2023-02-08T01:21:50.190Z,54.48
2023-02-08T01:24:52.922Z,54.59
2023-02-08T01:27:57.807Z,54.60
2023-02-08T01:31:08.319Z,54.56
2023-02-08T01:34:11.908Z,54.56
2023-02-08T01:37:14.223Z,54.65
2023-02-08T01:40:18.210Z,54.60
2023-02-08T01:43:30.570Z,54.56
2023-02-08T01:46:34.834Z,54.56
2023-02-08T01:49:38.293Z,54.63
2023-02-08T01:52:43.587Z,54.67
2023-02-08T01:55:51.673Z,54.66
2023-02-08T01:58:57.537Z,54.72
2023-02-08T02:02:01.459Z,54.80
2023-02-08T02:05:05.930Z,54.78
2023-02-08T02:08:09.617Z,54.74
2023-02-08T02:11:12.068Z,54.67
2023-02-08T02:14:15.743Z,54.55
2023-02-08T02:17:21.229Z,54.54
2023-02-08T02:21:05.419Z,54.58
2023-02-08T02:24:30.322Z,54.69
2023-02-08T02:28:03.214Z,54.60
2023-02-08T02:31:52.024Z,54.59
2023-02-08T02:35:26.192Z,54.55
2023-02-08T02:39:03.677Z,54.34
2023-02-08T02:42:56.367Z,54.28
2023-02-08T02:46:20.125Z,54.19
2023-02-08T02:49:54.051Z,54.19
2023-02-08T02:53:19.392Z,54.23
2023-02-08T02:56:31.079Z,54.15
2023-02-08T02:59:35.667Z,54.11
2023-02-08T03:02:38.449Z,54.04
2023-02-08T03:05:41.125Z,54.11
2023-02-08T03:09:04.992Z,54.01
2023-02-08T03:12:19.195Z,54.13
2023-02-08T03:15:28.082Z,54.26
2023-02-08T03:19:09.379Z,54.05
2023-02-08T03:22:21.271Z,54.09
2023-02-08T03:25:32.185Z,54.18
2023-02-08T03:28:53.009Z,54.23
2023-02-08T03:32:04.308Z,54.39
2023-02-08T03:35:17.561Z,54.35
2023-02-08T03:38:25.407Z,54.49
2023-02-08T03:41:34.301Z,54.55
2023-02-08T03:44:44.398Z,54.62
2023-02-08T03:47:50.700Z,54.56
2023-02-08T03:50:56.041Z,54.61
2023-02-08T03:54:01.250Z,54.78
2023-02-08T03:57:24.855Z,54.88
2023-02-08T04:00:30.650Z,54.79
2023-02-08T04:03:33.722Z,54.77
2023-02-08T04:06:36.396Z,54.84
2023-02-08T04:09:39.001Z,54.87
2023-02-08T04:12:42.158Z,54.89
2023-02-08T04:15:44.762Z,54.88
2023-02-08T04:18:49.122Z,54.93
2023-02-08T04:21:51.329Z,54.96
2023-02-08T04:24:55.847Z,54.94
2023-02-08T04:27:57.813Z,54.65
2023-02-08T04:31:00.445Z,54.70
2023-02-08T04:34:03.227Z,54.52
2023-02-08T04:37:06.885Z,54.35
2023-02-08T04:40:09.771Z,54.17
2023-02-08T04:43:12.265Z,54.01
2023-02-08T04:46:14.452Z,54.15
2023-02-08T04:49:16.926Z,54.03
2023-02-08T04:52:18.978Z,53.98
2023-02-08T04:55:22.294Z,53.80
2023-02-08T04:58:24.620Z,53.96
2023-02-08T05:01:27.087Z,54.14
2023-02-08T05:04:31.361Z,54.42
2023-02-08T05:07:33.827Z,54.65
2023-02-08T05:10:36.048Z,54.56
2023-02-08T05:13:40.395Z,54.72
2023-02-08T05:16:42.562Z,54.66
2023-02-08T05:19:45.338Z,54.53
2023-02-08T05:22:47.688Z,54.57
2023-02-08T05:25:50.539Z,54.58
2023-02-08T05:28:53.019Z,54.60
2023-02-08T05:31:56.571Z,54.55
2023-02-08T05:34:58.616Z,54.58
2023-02-08T05:38:01.556Z,54.71
2023-02-08T05:41:03.729Z,54.77
2023-02-08T05:44:06.319Z,54.78
2023-02-08T05:47:08.763Z,54.75
2023-02-08T05:50:11.545Z,54.83
2023-02-08T05:53:14.000Z,54.86
2023-02-08T05:56:16.632Z,54.86
2023-02-08T05:59:18.817Z,54.75
2023-02-08T06:02:21.281Z,54.33
2023-02-08T06:05:23.532Z,54.27
2023-02-08T06:08:26.022Z,54.14
2023-02-08T06:11:28.451Z,54.04
2023-02-08T06:14:31.229Z,54.08
2023-02-08T06:17:33.269Z,54.13
2023-02-08T06:20:36.978Z,54.15
2023-02-08T06:23:39.291Z,54.10
2023-02-08T06:26:42.402Z,54.08
2023-02-08T06:29:44.566Z,53.98
2023-02-08T06:32:47.554Z,53.82
2023-02-08T06:35:52.924Z,53.68
2023-02-08T06:38:55.603Z,53.60
2023-02-08T06:41:58.202Z,53.58
2023-02-08T06:45:00.780Z,53.61
2023-02-08T06:48:03.011Z,53.63
2023-02-08T06:51:06.327Z,53.70
2023-02-08T06:54:08.511Z,53.82
2023-02-08T06:57:13.110Z,53.82
2023-02-08T07:00:16.664Z,53.83
2023-02-08T07:03:19.368Z,53.81
2023-02-08T07:06:22.096Z,53.73
2023-02-08T07:09:25.700Z,53.83
2023-02-08T07:12:28.148Z,53.76
2023-02-08T07:15:31.186Z,53.66
2023-02-08T07:18:34.113Z,53.54
2023-02-08T07:21:36.685Z,53.43
2023-02-08T07:24:41.090Z,53.41
2023-02-08T07:27:44.349Z,54.38
2023-02-08T07:30:46.796Z,54.27
2023-02-08T07:33:50.519Z,54.04
2023-02-08T07:36:52.783Z,53.84
2023-02-08T07:39:56.273Z,53.66
2023-02-08T07:42:59.886Z,53.56
2023-02-08T07:46:17.005Z,53.31
2023-02-08T07:49:19.204Z,53.28
2023-02-08T07:52:21.748Z,53.17
2023-02-08T07:55:24.065Z,53.22
2023-02-08T07:58:27.169Z,53.21
2023-02-08T08:01:29.799Z,53.22
2023-02-08T08:04:32.318Z,53.25
2023-02-08T08:07:34.796Z,53.30
2023-02-08T08:10:37.524Z,53.38
2023-02-08T08:13:39.559Z,53.31
2023-02-08T08:16:45.006Z,53.35
2023-02-08T08:19:47.866Z,53.56
2023-02-08T08:22:50.400Z,53.28
2023-02-08T08:25:52.981Z,53.06
2023-02-08T08:28:58.288Z,53.01
2023-02-08T08:32:00.737Z,52.94
2023-02-08T08:35:04.928Z,52.93
2023-02-08T08:38:07.108Z,52.81
2023-02-08T08:41:15.419Z,52.72
2023-02-08T08:44:17.893Z,52.59
2023-02-08T08:47:22.402Z,52.65
2023-02-08T08:50:24.537Z,52.45
2023-02-08T08:53:28.794Z,52.32
2023-02-08T08:56:32.074Z,52.27
2023-02-08T08:59:35.321Z,52.23
2023-02-08T09:02:37.501Z,52.31
2023-02-08T09:05:40.136Z,52.59
2023-02-08T09:08:42.407Z,52.56
2023-02-08T09:11:45.006Z,52.40
2023-02-08T09:14:47.163Z,52.53
2023-02-08T09:17:50.919Z,52.54
2023-02-08T09:20:53.248Z,52.69
2023-02-08T09:23:55.762Z,52.66
2023-02-08T09:26:57.993Z,52.48
2023-02-08T09:30:00.608Z,52.49
2023-02-08T09:33:02.778Z,52.29
2023-02-08T09:36:06.003Z,52.15
2023-02-08T09:39:15.949Z,52.17
2023-02-08T09:42:21.362Z,52.26
2023-02-08T09:45:37.775Z,52.25
2023-02-08T09:48:41.513Z,52.12
2023-02-08T09:52:01.966Z,52.11
2023-02-08T09:55:22.438Z,51.98
2023-02-08T09:58:36.633Z,51.89
2023-02-08T10:01:39.731Z,51.61
2023-02-08T10:05:05.911Z,51.54
2023-02-08T10:08:11.329Z,51.70
2023-02-08T10:11:28.758Z,51.97
2023-02-08T10:14:48.591Z,52.13
2023-02-08T10:18:19.428Z,52.26
2023-02-08T10:21:32.812Z,52.22
2023-02-08T10:24:44.227Z,52.15
2023-02-08T10:28:13.632Z,52.09
2023-02-08T10:31:36.838Z,51.76
2023-02-08T10:35:00.623Z,51.33
2023-02-08T10:38:34.522Z,51.22
2023-02-08T10:41:44.901Z,51.47
2023-02-08T10:45:23.922Z,51.46
2023-02-08T10:48:39.004Z,51.59
2023-02-08T10:51:41.530Z,51.55
2023-02-08T10:54:44.220Z,51.39
2023-02-08T10:57:48.521Z,51.60
2023-02-08T11:00:54.877Z,51.70
2023-02-08T11:04:08.532Z,51.31
2023-02-08T11:07:24.590Z,51.22
2023-02-08T11:10:27.901Z,51.11
2023-02-08T11:13:36.825Z,51.00
2023-02-08T11:16:39.724Z,50.62
2023-02-08T11:19:46.421Z,50.54
2023-02-08T11:22:48.761Z,50.07
2023-02-08T11:25:52.484Z,50.02
2023-02-08T11:29:04.970Z,50.13
2023-02-08T11:32:20.586Z,50.21
2023-02-08T11:35:26.113Z,49.98
2023-02-08T11:38:29.905Z,50.01
2023-02-08T11:41:37.717Z,49.87
2023-02-08T11:44:46.192Z,49.80
2023-02-08T11:47:49.045Z,49.72
2023-02-08T11:50:59.261Z,49.98
2023-02-08T11:54:02.859Z,49.99
2023-02-08T11:57:21.708Z,50.27
2023-02-08T12:00:26.802Z,50.30
2023-02-08T12:03:41.364Z,50.30
2023-02-08T12:06:55.556Z,50.13
2023-02-08T12:10:17.169Z,50.04
2023-02-08T12:13:34.564Z,50.12
2023-02-08T12:17:21.078Z,50.15
2023-02-08T12:20:33.064Z,50.09
2023-02-08T12:23:41.482Z,50.12
2023-02-08T12:26:51.740Z,50.09
2023-02-08T12:30:23.283Z,50.13
2023-02-08T12:34:05.794Z,50.11
2023-02-08T12:37:36.562Z,50.11
2023-02-08T12:41:16.400Z,50.22
2023-02-08T12:44:47.050Z,50.33
2023-02-08T12:48:09.423Z,50.52
2023-02-08T12:51:20.698Z,50.45
2023-02-08T12:54:41.626Z,50.33
2023-02-08T12:57:47.428Z,51.34
2023-02-08T13:00:51.780Z,51.27
2023-02-08T13:04:20.481Z,50.77
2023-02-08T13:07:44.406Z,50.58
2023-02-08T13:10:53.367Z,50.41
2023-02-08T13:14:25.317Z,50.53
2023-02-08T13:17:36.725Z,50.60
2023-02-08T13:20:45.257Z,51.10
2023-02-08T13:23:53.139Z,51.09
2023-02-08T13:26:57.598Z,50.91
2023-02-08T13:30:01.474Z,50.71
2023-02-08T13:33:18.752Z,50.58
2023-02-08T13:36:30.254Z,50.42
2023-02-08T13:39:38.238Z,50.44
2023-02-08T13:42:48.751Z,50.37
2023-02-08T13:45:54.038Z,50.25
2023-02-08T13:49:00.665Z,50.41
2023-02-08T13:52:02.730Z,50.39
2023-02-08T13:55:36.702Z,50.39
2023-02-08T13:58:47.811Z,50.52
2023-02-08T14:02:13.069Z,50.89
2023-02-08T14:05:45.644Z,50.74
2023-02-08T14:09:05.896Z,50.71
2023-02-08T14:12:28.762Z,50.82
2023-02-08T14:15:36.748Z,50.92
2023-02-08T14:18:41.345Z,50.83
2023-02-08T14:21:47.109Z,50.82
2023-02-08T14:25:00.805Z,50.86
2023-02-08T14:28:04.242Z,51.12
2023-02-08T14:31:10.326Z,51.11
2023-02-08T14:34:35.167Z,51.13
2023-02-08T14:37:38.054Z,51.23
2023-02-08T14:40:58.309Z,51.40
2023-02-08T14:44:38.464Z,51.43
2023-02-08T14:47:47.222Z,51.54
2023-02-08T14:51:12.488Z,51.60
2023-02-08T14:54:21.638Z,51.57
2023-02-08T14:57:29.018Z,51.74
2023-02-08T15:00:37.974Z,51.71
2023-02-08T15:03:42.742Z,51.83
2023-02-08T15:07:16.273Z,51.86
2023-02-08T15:10:21.080Z,51.85
2023-02-08T15:13:24.981Z,51.93
2023-02-08T15:16:34.776Z,51.98
2023-02-08T15:19:38.738Z,51.93
2023-02-08T15:22:40.868Z,52.04
2023-02-08T15:25:43.540Z,52.11
2023-02-08T15:28:45.815Z,51.95
2023-02-08T15:31:50.510Z,51.96
2023-02-08T15:35:01.417Z,51.97
2023-02-08T15:38:07.766Z,52.09
2023-02-08T15:41:15.264Z,52.09
2023-02-08T15:44:23.994Z,52.47
2023-02-08T15:47:33.109Z,52.32
2023-02-08T15:50:36.370Z,52.09
2023-02-08T15:53:42.917Z,51.78
2023-02-08T15:56:54.597Z,51.44
2023-02-08T15:59:58.452Z,51.28
2023-02-08T16:03:08.909Z,51.41
2023-02-08T16:06:11.806Z,51.56
2023-02-08T16:09:20.275Z,51.62
2023-02-08T16:12:26.919Z,51.66
2023-02-08T16:15:47.539Z,51.80
2023-02-08T16:19:06.828Z,51.71
2023-02-08T16:22:28.596Z,51.66
2023-02-08T16:25:45.078Z,51.51
2023-02-08T16:29:07.312Z,51.61
2023-02-08T16:32:20.700Z,51.66
2023-02-08T16:35:30.429Z,51.70
2023-02-08T16:38:34.219Z,51.81
2023-02-08T16:42:14.923Z,51.82
2023-02-08T16:45:20.579Z,51.86
2023-02-08T16:48:50.572Z,51.76
2023-02-08T16:52:00.527Z,51.60
2023-02-08T16:55:03.841Z,51.54
2023-02-08T16:58:06.007Z,51.50
2023-02-08T17:01:13.125Z,51.57
2023-02-08T17:04:15.673Z,51.60
2023-02-08T17:07:18.926Z,51.74
2023-02-08T17:10:32.710Z,51.80
2023-02-08T17:13:35.357Z,51.89
2023-02-08T17:16:40.586Z,51.93
2023-02-08T17:19:44.872Z,52.51
2023-02-08T17:22:47.770Z,52.62
2023-02-08T17:25:51.041Z,52.74
2023-02-08T17:28:54.874Z,52.64
2023-02-08T17:31:57.409Z,52.82
2023-02-08T17:35:00.824Z,52.77
2023-02-08T17:38:04.505Z,52.81
2023-02-08T17:41:08.504Z,52.74
2023-02-08T17:44:13.061Z,52.73
2023-02-08T17:47:15.401Z,52.79
2023-02-08T17:50:19.412Z,52.86
2023-02-08T17:53:21.447Z,52.91
2023-02-08T17:56:26.471Z,52.95
2023-02-08T17:59:28.506Z,52.92
2023-02-08T18:02:31.316Z,52.94
2023-02-08T18:05:33.773Z,53.11
2023-02-08T18:08:37.914Z,53.31
2023-02-08T18:11:39.970Z,53.46
2023-02-08T18:14:42.351Z,53.52
2023-02-08T18:17:45.142Z,53.44
2023-02-08T18:20:47.649Z,53.61
2023-02-08T18:23:50.282Z,53.59
2023-02-08T18:26:53.318Z,53.80
2023-02-08T18:29:58.354Z,53.95
2023-02-08T18:33:01.188Z,53.97
2023-02-08T18:36:06.857Z,54.06
2023-02-08T18:39:11.165Z,54.08
2023-02-08T18:42:13.154Z,54.13
2023-02-08T18:45:15.667Z,54.31
2023-02-08T18:48:17.755Z,54.41
2023-02-08T18:51:21.702Z,54.44
2023-02-08T18:54:24.067Z,54.35
2023-02-08T18:57:26.978Z,54.48
2023-02-08T19:00:29.175Z,54.39
2023-02-08T19:03:32.874Z,54.54
2023-02-08T19:06:37.542Z,54.78
2023-02-08T19:09:40.499Z,54.94
2023-02-08T19:12:43.355Z,55.05
2023-02-08T19:15:46.925Z,54.80
2023-02-08T19:18:49.476Z,54.74
2023-02-08T19:21:51.865Z,55.11
2023-02-08T19:24:54.424Z,55.15
2023-02-08T19:27:56.886Z,55.14
2023-02-08T19:31:10.816Z,55.34
2023-02-08T19:34:13.745Z,55.17
2023-02-08T19:37:16.262Z,55.18
2023-02-08T19:40:20.181Z,55.53
2023-02-08T19:43:22.604Z,55.42
2023-02-08T19:46:27.684Z,55.17
2023-02-08T19:49:29.812Z,54.80
2023-02-08T19:52:32.816Z,54.45
2023-02-08T19:55:35.094Z,54.25
2023-02-08T19:58:38.089Z,54.37
2023-02-08T20:01:40.206Z,54.47
2023-02-08T20:04:42.701Z,54.15
2023-02-08T20:07:44.950Z,54.19
2023-02-08T20:10:48.469Z,53.89
2023-02-08T20:13:50.936Z,53.87
2023-02-08T20:16:53.616Z,53.58
2023-02-08T20:19:56.420Z,53.50
2023-02-08T20:22:58.866Z,53.41
2023-02-08T20:26:26.690Z,53.34
2023-02-08T20:29:29.807Z,53.25
2023-02-08T20:32:32.294Z,53.05
2023-02-08T20:35:36.615Z,53.14
2023-02-08T20:38:39.385Z,53.21
2023-02-08T20:41:48.014Z,53.01
2023-02-08T20:44:50.261Z,53.09
2023-02-08T20:47:52.603Z,53.13
2023-02-08T20:50:54.939Z,53.03
2023-02-08T20:53:59.404Z,52.94
2023-02-08T20:57:01.515Z,52.90
2023-02-08T21:00:05.632Z,52.79
2023-02-08T21:03:07.658Z,52.70
2023-02-08T21:06:19.183Z,52.58
2023-02-08T21:09:21.578Z,52.59
2023-02-08T21:12:26.363Z,52.52
2023-02-08T21:15:28.572Z,52.67
2023-02-08T21:18:31.277Z,52.49
2023-02-08T21:21:33.242Z,52.58
2023-02-08T21:24:36.038Z,52.76
2023-02-08T21:27:38.176Z,52.76
2023-02-08T21:30:40.867Z,52.64
2023-02-08T21:33:44.117Z,52.51
2023-02-08T21:36:47.884Z,52.37
2023-02-08T21:39:50.947Z,52.30
2023-02-08T21:42:53.376Z,52.15
2023-02-08T21:45:55.742Z,52.06
2023-02-08T21:49:17.736Z,52.20
2023-02-08T21:52:38.968Z,52.05
2023-02-08T21:55:47.983Z,51.99
2023-02-08T21:58:50.267Z,51.93
2023-02-08T22:01:54.317Z,51.85
2023-02-08T22:05:11.190Z,51.77
2023-02-08T22:08:16.331Z,51.68
2023-02-08T22:11:18.811Z,51.71
2023-02-08T22:14:24.294Z,51.46
2023-02-08T22:17:29.080Z,51.48
2023-02-08T22:20:34.250Z,51.52
2023-02-08T22:24:15.595Z,51.58
2023-02-08T22:27:25.880Z,51.59
2023-02-08T22:30:30.964Z,51.59
2023-02-08T22:33:33.987Z,51.54
2023-02-08T22:36:39.180Z,51.51
2023-02-08T22:39:41.838Z,51.39
2023-02-08T22:42:43.926Z,51.41
2023-02-08T22:45:56.673Z,51.47
2023-02-08T22:48:58.708Z,51.33
2023-02-08T22:52:01.739Z,51.28
2023-02-08T22:55:05.118Z,51.22
2023-02-08T22:58:07.904Z,51.24
2023-02-08T23:01:15.212Z,51.23
2023-02-08T23:04:17.768Z,51.16
2023-02-08T23:07:21.424Z,51.00
2023-02-08T23:10:24.265Z,50.93
2023-02-08T23:13:27.823Z,50.98
2023-02-08T23:16:30.312Z,51.04
2023-02-08T23:19:34.075Z,50.99
2023-02-08T23:22:38.694Z,50.92
2023-02-08T23:25:41.556Z,50.80
2023-02-08T23:28:44.856Z,50.81
2023-02-08T23:31:47.074Z,50.79
2023-02-08T23:34:51.087Z,50.76
2023-02-08T23:37:53.474Z,50.64
2023-02-08T23:40:56.044Z,50.76
2023-02-08T23:44:01.588Z,50.60
2023-02-08T23:47:04.336Z,50.54
2023-02-08T23:50:07.895Z,50.48
2023-02-08T23:53:10.194Z,50.39
2023-02-08T23:56:24.767Z,50.22
2023-02-08T23:59:27.647Z,50.25
